createdAt,value
2019-05-10T00:01:15.525Z,88.80
2019-05-10T00:06:26.913Z,88.80
2019-05-10T00:11:24.081Z,89.30
2019-05-10T00:16:18.423Z,88.10
2019-05-10T00:21:11.988Z,89.70
2019-05-10T00:26:07.433Z,90.10
2019-05-10T00:31:00.999Z,90.40
2019-05-10T00:35:54.892Z,91.30
2019-05-10T00:40:48.419Z,91.00
2019-05-10T00:45:45.222Z,91.20
2019-05-10T00:50:38.790Z,91.60
2019-05-10T00:55:32.378Z,92.40
2019-05-10T01:00:25.946Z,92.70
2019-05-10T01:05:22.069Z,92.30
2019-05-10T01:10:15.732Z,92.60
2019-05-10T01:15:10.565Z,92.70
2019-05-10T01:20:06.854Z,92.80
2019-05-10T01:25:00.361Z,92.70
2019-05-10T01:29:53.937Z,92.80
2019-05-10T01:34:47.522Z,93.10
2019-05-10T01:39:41.045Z,93.10
2019-05-10T01:44:34.613Z,93.50
2019-05-10T01:49:29.139Z,93.10
2019-05-10T01:54:23.625Z,92.60
2019-05-10T01:59:17.460Z,92.50
2019-05-10T02:04:11.026Z,92.70
2019-05-10T02:09:07.197Z,93.00
2019-05-10T02:14:01.601Z,92.70
2019-05-10T02:18:55.157Z,92.80
2019-05-10T02:23:48.753Z,92.90
2019-05-10T02:28:42.311Z,93.20
2019-05-10T02:33:35.899Z,93.30
2019-05-10T02:38:29.448Z,93.20
2019-05-10T02:43:23.279Z,93.30
2019-05-10T02:48:16.874Z,93.20
2019-05-10T02:53:11.189Z,92.90
2019-05-10T02:58:04.903Z,92.70
2019-05-10T03:02:59.306Z,93.20
2019-05-10T03:07:56.056Z,93.00
2019-05-10T03:12:52.527Z,93.50
2019-05-10T03:17:47.326Z,93.60
2019-05-10T03:22:42.646Z,93.20
2019-05-10T03:27:36.650Z,93.30
2019-05-10T03:32:32.187Z,93.40
2019-05-10T03:37:25.968Z,92.50
2019-05-10T03:42:20.434Z,92.90
2019-05-10T03:47:14.007Z,93.50
2019-05-10T03:52:07.626Z,92.90
2019-05-10T03:57:13.203Z,93.00
2019-05-10T04:01:56.738Z,93.30
2019-05-10T04:06:50.366Z,93.50
2019-05-10T04:11:45.082Z,94.00
2019-05-10T04:16:38.666Z,94.50
2019-05-10T04:21:32.225Z,94.80
2019-05-10T04:26:26.072Z,95.10
2019-05-10T04:31:19.633Z,94.90
2019-05-10T04:36:13.233Z,95.20
2019-05-10T04:41:06.773Z,95.30
2019-05-10T04:46:00.402Z,94.80
2019-05-10T04:50:54.319Z,95.20
2019-05-10T04:55:47.934Z,94.70
2019-05-10T05:00:41.505Z,94.40
2019-05-10T05:05:35.070Z,95.00
2019-05-10T05:10:28.653Z,95.20
2019-05-10T05:15:22.212Z,95.20
2019-05-10T05:20:17.052Z,94.70
2019-05-10T05:25:10.786Z,95.00
2019-05-10T05:30:07.536Z,95.10
2019-05-10T05:35:06.841Z,94.30
2019-05-10T05:40:01.424Z,94.00
2019-05-10T05:44:55.140Z,94.00
2019-05-10T05:49:49.596Z,94.40
2019-05-10T05:54:43.088Z,94.00
2019-05-10T05:59:36.647Z,94.50
2019-05-10T06:04:30.240Z,94.60
2019-05-10T06:09:23.715Z,94.20
2019-05-10T06:14:17.241Z,94.40
2019-05-10T06:19:10.714Z,94.20
2019-05-10T06:24:07.473Z,94.30
2019-05-10T06:29:04.199Z,94.50
2019-05-10T06:33:56.106Z,93.30
2019-05-10T06:38:49.668Z,93.60
2019-05-10T06:43:51.029Z,92.90
2019-05-10T06:48:41.828Z,93.60
2019-05-10T06:53:35.305Z,93.10
2019-05-10T06:58:30.433Z,93.30
2019-05-10T07:03:24.333Z,91.90
2019-05-10T07:08:20.498Z,93.20
2019-05-10T07:13:13.649Z,92.60
2019-05-10T07:18:07.164Z,93.00
2019-05-10T07:23:05.982Z,92.90
2019-05-10T07:27:56.144Z,92.20
2019-05-10T07:32:54.467Z,92.50
2019-05-10T07:37:47.798Z,91.60
2019-05-10T07:42:45.616Z,91.30
2019-05-10T07:47:36.700Z,90.50
2019-05-10T07:52:30.256Z,91.70
2019-05-10T07:57:24.744Z,89.20
2019-05-10T08:02:19.009Z,90.20
2019-05-10T08:07:12.499Z,88.00
2019-05-10T08:12:06.346Z,89.50
2019-05-10T08:17:05.897Z,90.90
2019-05-10T08:22:00.782Z,91.30
2019-05-10T08:26:57.180Z,92.60
2019-05-10T08:31:52.425Z,92.80
2019-05-10T08:36:45.796Z,93.40
2019-05-10T08:41:36.181Z,92.30
2019-05-10T08:46:40.588Z,91.90
2019-05-10T08:51:25.992Z,92.50
2019-05-10T08:56:21.652Z,91.70
2019-05-10T09:01:26.164Z,90.70
2019-05-10T09:06:15.890Z,91.40
2019-05-10T09:11:06.962Z,91.00
2019-05-10T09:16:02.407Z,90.40
2019-05-10T09:21:00.369Z,89.10
2019-05-10T09:25:52.673Z,88.10
2019-05-10T09:30:59.385Z,87.00
2019-05-10T09:35:47.039Z,83.90
2019-05-10T09:40:42.599Z,80.20
2019-05-10T09:45:33.075Z,78.50
2019-05-10T09:50:30.553Z,73.30
2019-05-10T09:55:30.239Z,72.70
2019-05-10T10:00:37.863Z,72.10
2019-05-10T10:05:31.241Z,74.50
2019-05-10T10:10:30.125Z,72.80
2019-05-10T10:15:29.862Z,77.20
2019-05-10T10:20:15.287Z,71.50
2019-05-10T10:25:09.089Z,71.00
2019-05-10T10:30:06.452Z,71.10
2019-05-10T10:34:58.201Z,75.50
2019-05-10T10:39:54.390Z,74.10
2019-05-10T10:44:48.321Z,69.10
2019-05-10T10:49:41.948Z,68.40
2019-05-10T10:54:37.515Z,71.50
2019-05-10T10:59:30.706Z,60.30
2019-05-10T11:04:24.547Z,56.70
2019-05-10T11:09:20.589Z,52.40
2019-05-10T11:14:14.809Z,50.80
2019-05-10T11:19:15.293Z,55.10
2019-05-10T11:24:10.503Z,58.00
2019-05-10T11:29:01.369Z,59.80
2019-05-10T11:33:58.740Z,61.10
2019-05-10T11:38:58.471Z,62.00
2019-05-10T11:43:51.639Z,61.40
2019-05-10T11:48:45.457Z,64.30
2019-05-10T11:53:41.408Z,59.60
2019-05-10T11:58:37.658Z,52.00
2019-05-10T12:03:49.017Z,52.20
2019-05-10T12:08:42.488Z,54.30
2019-05-10T12:13:37.257Z,58.30
2019-05-10T12:18:32.506Z,54.70
2019-05-10T12:23:31.215Z,59.30
2019-05-10T12:28:28.488Z,57.80
2019-05-10T12:33:24.293Z,58.30
2019-05-10T12:38:13.785Z,59.00
2019-05-10T12:43:10.945Z,57.00
2019-05-10T12:48:03.950Z,49.20
2019-05-10T12:53:14.053Z,50.80
2019-05-10T12:57:52.726Z,52.30
2019-05-10T13:02:51.054Z,53.10
2019-05-10T13:07:41.561Z,51.90
2019-05-10T13:12:36.911Z,51.90
2019-05-10T13:17:30.919Z,54.20
2019-05-10T13:22:24.457Z,53.70
2019-05-10T13:27:18.036Z,49.30
2019-05-10T13:32:14.772Z,42.50
2019-05-10T13:37:06.893Z,46.70
2019-05-10T13:42:03.296Z,51.90
2019-05-10T13:46:55.593Z,54.40
2019-05-10T13:51:49.404Z,53.60
2019-05-10T13:56:45.452Z,52.40
2019-05-10T14:01:38.200Z,47.60
2019-05-10T14:06:31.679Z,47.50
2019-05-10T14:11:25.377Z,52.20
2019-05-10T14:16:22.447Z,52.90
2019-05-10T14:21:14.306Z,56.20
2019-05-10T14:26:09.302Z,52.60
2019-05-10T14:31:03.051Z,52.50
2019-05-10T14:36:00.933Z,53.70
2019-05-10T14:40:52.674Z,52.50
2019-05-10T14:45:46.606Z,52.10
2019-05-10T14:50:40.157Z,55.20
2019-05-10T14:55:36.851Z,56.00
2019-05-10T15:00:28.901Z,54.30
2019-05-10T15:05:22.732Z,53.00
2019-05-10T15:10:16.684Z,52.50
2019-05-10T15:15:10.588Z,53.80
2019-05-10T15:20:06.893Z,53.40
2019-05-10T15:25:00.583Z,51.00
2019-05-10T15:29:58.629Z,51.60
2019-05-10T15:35:05.213Z,55.20
2019-05-10T15:39:45.089Z,55.40
2019-05-10T15:44:38.665Z,56.50
2019-05-10T15:49:34.144Z,57.50
2019-05-10T15:54:27.637Z,57.40
2019-05-10T15:59:21.404Z,57.10
2019-05-10T16:04:15.289Z,58.80
2019-05-10T16:09:16.985Z,53.20
2019-05-10T16:14:06.904Z,53.00
2019-05-10T16:19:00.653Z,51.80
2019-05-10T16:23:54.467Z,51.80
2019-05-10T16:28:53.086Z,53.20
2019-05-10T16:33:43.252Z,54.90
2019-05-10T16:38:36.837Z,55.40
2019-05-10T16:43:30.317Z,55.60
2019-05-10T16:48:23.792Z,54.30
2019-05-10T16:53:17.288Z,55.50
2019-05-10T16:58:15.174Z,56.00
2019-05-10T17:03:06.312Z,57.10
2019-05-10T17:08:00.352Z,56.70
2019-05-10T17:12:53.936Z,59.90
2019-05-10T17:17:47.489Z,59.30
2019-05-10T17:22:41.221Z,59.50
2019-05-10T17:27:34.709Z,58.90
2019-05-10T17:32:30.640Z,61.10
2019-05-10T17:37:24.133Z,59.80
2019-05-10T17:42:17.679Z,60.30
2019-05-10T17:47:11.229Z,61.50
2019-05-10T17:52:04.803Z,61.60
2019-05-10T17:56:58.281Z,63.50
2019-05-10T18:01:51.848Z,64.30
